CheckWX is a tool to help pilots better visualize weather data.  It is not intended as a substitute for an official pre-flight weather briefing.

04:01:50 UTC

KCLE METAR
Cleveland-Hopkins International Airport
Cleveland, Ohio, USA
Current

1 hour ago

KCLE 190251Z 24021G29KT 9SM -SN SCT021 BKN027 OVC040 02/M01 A2974 RMK AO2 PK WND 25029/0251 SNB41 SLP078 P0000 60000 T00221006 50002 $
Observed
Jan-19 @ 02:51 UTC
Wind
  • 240° at 21 KTS
  • Gusting to 29 KTS
Visibility
9 SM
Flight Rules
MVFR
Conditions
Light Snow
Cloud Levels
  • Scattered at 2,100' AGL
  • Broken at 2,700' AGL
  • Overcast at 4,000' AGL
Temperature
C / 36°F
Dewpoint
-1°C / 30°F
Humidity
81%
Altimeter
29.74" Hg
Pressure
1007.12 hPa
Current Rain
0.01"
Previous

2 hours ago

KCLE 190151Z 25014G23KT 10SM BKN026 BKN032 OVC042 03/M02 A2975 RMK AO2 PK WND 25027/0105 SLP082 T00281017 $
Observed
Jan-19 @ 01:51 UTC
Wind
  • 250° at 14 KTS
  • Gusting to 23 KTS
Visibility
10 SM
Flight Rules
MVFR
Cloud Levels
  • Broken at 2,600' AGL
  • Broken at 3,200' AGL
  • Overcast at 4,200' AGL
Temperature
C / 37°F
Dewpoint
-2°C / 28°F
Humidity
70%
Altimeter
29.75" Hg
Pressure
1007.42 hPa
Previous

3 hours ago

KCLE 190051Z 26017G33KT 9SM BKN026 OVC034 03/M01 A2976 RMK AO2 PK WND 25036/2353 SLP086 T00281011 $
Observed
Jan-19 @ 00:51 UTC
Wind
  • 260° at 17 KTS
  • Gusting to 33 KTS
Visibility
9 SM
Flight Rules
MVFR
Cloud Levels
  • Broken at 2,600' AGL
  • Overcast at 3,400' AGL
Temperature
C / 37°F
Dewpoint
-1°C / 30°F
Humidity
75%
Altimeter
29.76" Hg
Pressure
1007.82 hPa